createdAt,value
2017-10-14T00:01:12.000Z,7.55
2017-10-14T00:03:39.526Z,6.85
2017-10-14T00:06:07.022Z,4.60
2017-10-14T00:08:34.545Z,9.15
2017-10-14T00:11:02.046Z,6.12
2017-10-14T00:13:29.578Z,5.12
2017-10-14T00:15:57.089Z,5.18
2017-10-14T00:18:25.409Z,4.53
2017-10-14T00:20:52.906Z,5.35
2017-10-14T00:23:20.428Z,12.55
2017-10-14T00:25:47.939Z,4.87
2017-10-14T00:28:16.231Z,4.15
2017-10-14T00:30:44.505Z,5.75
2017-10-14T00:33:12.789Z,5.37
2017-10-14T00:35:40.292Z,3.97
2017-10-14T00:38:07.830Z,3.70
2017-10-14T00:40:35.334Z,3.60
2017-10-14T00:43:02.832Z,4.68
2017-10-14T00:45:30.354Z,4.10
2017-10-14T00:47:58.631Z,4.78
2017-10-14T00:50:26.175Z,4.47
2017-10-14T00:52:53.685Z,4.30
2017-10-14T00:55:21.203Z,4.87
2017-10-14T00:57:48.704Z,5.07
2017-10-14T01:00:16.223Z,3.70
2017-10-14T01:02:43.718Z,5.10
2017-10-14T01:05:11.232Z,4.60
2017-10-14T01:07:38.731Z,4.05
2017-10-14T01:10:06.337Z,6.12
2017-10-14T01:12:33.843Z,4.10
2017-10-14T01:15:01.368Z,3.33
2017-10-14T01:17:28.889Z,3.25
2017-10-14T01:19:56.398Z,4.95
2017-10-14T01:22:23.903Z,4.78
2017-10-14T01:24:51.421Z,3.62
2017-10-14T01:27:18.918Z,13.13
2017-10-14T01:29:46.433Z,3.95
2017-10-14T01:32:13.939Z,2.87
2017-10-14T01:34:41.487Z,4.20
2017-10-14T01:37:08.988Z,5.87
2017-10-14T01:39:36.496Z,4.20
2017-10-14T01:42:04.784Z,4.03
2017-10-14T01:44:32.287Z,4.20
2017-10-14T01:46:59.802Z,3.45
2017-10-14T01:49:27.302Z,3.78
2017-10-14T01:51:54.822Z,4.55
2017-10-14T01:54:22.327Z,3.42
2017-10-14T01:56:49.852Z,4.22
2017-10-14T01:59:17.355Z,6.62
2017-10-14T02:01:44.871Z,4.55
2017-10-14T02:04:12.371Z,6.45
2017-10-14T02:06:39.890Z,3.97
2017-10-14T02:09:07.388Z,5.10
2017-10-14T02:11:34.903Z,4.35
2017-10-14T02:14:02.408Z,7.20
2017-10-14T02:16:29.931Z,4.45
2017-10-14T02:18:57.431Z,4.53
2017-10-14T02:21:24.946Z,5.45
2017-10-14T02:23:52.446Z,3.92
2017-10-14T02:26:19.987Z,10.90
2017-10-14T02:28:47.502Z,4.12
2017-10-14T02:31:15.019Z,3.97
2017-10-14T02:33:42.522Z,3.95
2017-10-14T02:36:10.071Z,7.18
2017-10-14T02:38:37.571Z,4.43
2017-10-14T02:41:05.073Z,5.62
2017-10-14T02:43:33.359Z,5.07
2017-10-14T02:46:01.678Z,3.35
2017-10-14T02:48:29.242Z,7.40
2017-10-14T02:50:56.746Z,7.55
2017-10-14T02:53:25.039Z,6.15
2017-10-14T02:55:53.306Z,5.32
2017-10-14T02:58:21.582Z,6.20
2017-10-14T03:00:49.845Z,4.93
2017-10-14T03:03:17.358Z,5.32
2017-10-14T03:05:44.860Z,5.80
2017-10-14T03:08:12.383Z,4.85
2017-10-14T03:10:39.883Z,5.60
2017-10-14T03:13:07.407Z,11.43
2017-10-14T03:15:34.927Z,5.65
2017-10-14T03:18:02.458Z,4.32
2017-10-14T03:20:29.979Z,6.03
2017-10-14T03:22:57.498Z,4.53
2017-10-14T03:25:25.773Z,4.65
2017-10-14T03:27:54.067Z,5.53
2017-10-14T03:30:21.577Z,6.18
2017-10-14T03:32:49.110Z,4.72
2017-10-14T03:35:16.605Z,4.25
2017-10-14T03:37:44.163Z,6.20
2017-10-14T03:40:11.668Z,4.32
2017-10-14T03:42:39.170Z,7.95
2017-10-14T03:45:06.691Z,5.62
2017-10-14T03:47:34.187Z,7.15
2017-10-14T03:50:01.713Z,4.45
2017-10-14T03:52:29.257Z,4.95
2017-10-14T03:54:57.622Z,4.57
2017-10-14T03:57:25.890Z,5.15
2017-10-14T03:59:53.417Z,4.68
2017-10-14T04:02:20.929Z,4.95
2017-10-14T04:04:48.442Z,5.18
2017-10-14T04:07:15.934Z,4.62
2017-10-14T04:09:43.463Z,4.35
2017-10-14T04:12:11.022Z,4.40
2017-10-14T04:14:38.535Z,4.47
2017-10-14T04:17:06.038Z,5.70
2017-10-14T04:19:33.558Z,6.25
2017-10-14T04:22:01.118Z,9.27
2017-10-14T04:24:28.638Z,7.10
2017-10-14T04:26:56.906Z,5.68
2017-10-14T04:29:24.450Z,6.10
2017-10-14T04:31:51.962Z,5.70
2017-10-14T04:34:19.478Z,9.40
2017-10-14T04:36:46.987Z,6.07
2017-10-14T04:39:14.499Z,7.53
2017-10-14T04:41:42.019Z,5.22
2017-10-14T04:44:09.523Z,8.98
2017-10-14T04:46:37.043Z,6.85
2017-10-14T04:49:04.541Z,4.47
2017-10-14T04:51:32.056Z,5.85
2017-10-14T04:53:59.568Z,9.10
2017-10-14T04:56:27.912Z,7.32
2017-10-14T04:58:55.407Z,5.30
2017-10-14T05:01:22.942Z,6.95
2017-10-14T05:03:50.442Z,5.15
2017-10-14T05:06:18.035Z,6.20
2017-10-14T05:08:45.542Z,7.20
2017-10-14T05:11:13.827Z,4.37
2017-10-14T05:13:42.094Z,4.95
2017-10-14T05:16:10.370Z,5.87
2017-10-14T05:18:38.650Z,5.82
2017-10-14T05:21:06.960Z,6.50
2017-10-14T05:23:34.462Z,5.78
2017-10-14T05:26:01.980Z,7.82
2017-10-14T05:28:29.482Z,5.75
2017-10-14T05:30:56.997Z,6.00
2017-10-14T05:33:24.493Z,5.80
2017-10-14T05:35:52.011Z,7.32
2017-10-14T05:38:19.526Z,8.35
2017-10-14T05:40:47.051Z,5.90
2017-10-14T05:43:14.569Z,5.07
2017-10-14T05:45:42.834Z,6.75
2017-10-14T05:48:11.130Z,6.15
2017-10-14T05:50:38.623Z,5.95
2017-10-14T05:53:06.150Z,6.35
2017-10-14T05:55:33.679Z,5.87
2017-10-14T05:58:01.198Z,8.73
2017-10-14T06:00:29.471Z,6.57
2017-10-14T06:02:56.990Z,6.70
2017-10-14T06:05:25.256Z,7.03
2017-10-14T06:07:53.534Z,6.55
2017-10-14T06:10:21.801Z,8.10
2017-10-14T06:12:49.319Z,7.97
2017-10-14T06:15:16.820Z,7.45
2017-10-14T06:17:44.335Z,5.40
2017-10-14T06:20:11.841Z,9.88
2017-10-14T06:22:39.436Z,7.78
2017-10-14T06:25:07.782Z,6.87
2017-10-14T06:27:35.306Z,13.32
2017-10-14T06:30:02.811Z,6.20
2017-10-14T06:32:31.089Z,7.50
2017-10-14T06:34:59.357Z,6.50
2017-10-14T06:37:27.642Z,8.43
2017-10-14T06:39:55.913Z,8.52
2017-10-14T06:42:24.207Z,8.52
2017-10-14T06:44:51.738Z,8.57
2017-10-14T06:47:19.244Z,6.05
2017-10-14T06:49:46.759Z,8.38
2017-10-14T06:52:14.264Z,7.30
2017-10-14T06:54:41.792Z,10.52
2017-10-14T06:57:10.062Z,6.40
2017-10-14T06:59:38.347Z,12.23
2017-10-14T07:02:06.627Z,8.68
2017-10-14T07:04:34.205Z,7.25
2017-10-14T07:07:01.766Z,9.50
2017-10-14T07:09:29.279Z,9.20
2017-10-14T07:11:56.779Z,7.80
2017-10-14T07:14:24.293Z,9.90
2017-10-14T07:16:52.773Z,10.40
2017-10-14T07:19:20.278Z,7.65
2017-10-14T07:21:48.699Z,8.57
2017-10-14T07:24:16.263Z,7.43
2017-10-14T07:26:43.768Z,8.00
2017-10-14T07:29:11.278Z,6.62
2017-10-14T07:31:38.786Z,9.95
2017-10-14T07:34:06.498Z,10.73
2017-10-14T07:36:36.359Z,7.07
2017-10-14T07:39:04.011Z,9.32
2017-10-14T07:41:31.563Z,13.20
2017-10-14T07:43:59.854Z,11.05
2017-10-14T07:46:28.122Z,9.88
2017-10-14T07:48:58.371Z,14.20
2017-10-14T07:51:27.826Z,10.98
2017-10-14T07:53:55.390Z,11.98
2017-10-14T07:56:23.884Z,9.07
2017-10-14T07:58:51.493Z,12.30
2017-10-14T08:01:19.015Z,11.60
2017-10-14T08:03:46.520Z,12.20
2017-10-14T08:06:14.030Z,8.88
2017-10-14T08:08:42.379Z,15.02
2017-10-14T08:11:09.905Z,7.72
2017-10-14T08:13:37.406Z,15.52
2017-10-14T08:16:04.939Z,9.80
2017-10-14T08:18:32.455Z,10.23
2017-10-14T08:21:00.747Z,8.02
2017-10-14T08:23:28.251Z,5.78
2017-10-14T08:25:56.011Z,10.02
2017-10-14T08:28:23.511Z,7.87
2017-10-14T08:30:51.878Z,7.87
2017-10-14T08:33:20.160Z,8.50
2017-10-14T08:35:48.462Z,6.93
2017-10-14T08:38:15.979Z,5.45
2017-10-14T08:40:43.494Z,6.70
2017-10-14T08:43:11.867Z,5.62
2017-10-14T08:45:39.395Z,9.40
2017-10-14T08:48:07.671Z,6.20
2017-10-14T08:50:36.504Z,11.20
2017-10-14T08:53:04.032Z,6.05
2017-10-14T08:55:32.563Z,6.28
2017-10-14T08:58:00.066Z,7.75
2017-10-14T09:00:27.579Z,5.90
2017-10-14T09:02:55.145Z,7.78
2017-10-14T09:05:22.696Z,7.53
2017-10-14T09:07:50.219Z,9.50
2017-10-14T09:10:17.739Z,9.35
2017-10-14T09:12:45.288Z,6.20
2017-10-14T09:15:12.804Z,10.07
2017-10-14T09:17:40.327Z,8.25
2017-10-14T09:20:07.832Z,7.07
2017-10-14T09:22:35.365Z,6.43
2017-10-14T09:25:02.899Z,7.22
2017-10-14T09:27:30.424Z,6.07
2017-10-14T09:29:57.953Z,7.95
2017-10-14T09:32:25.484Z,6.65
2017-10-14T09:34:53.236Z,5.80
2017-10-14T09:37:20.767Z,15.40
2017-10-14T09:39:48.270Z,6.75
2017-10-14T09:42:15.790Z,7.43
2017-10-14T09:44:44.405Z,6.55
2017-10-14T09:47:11.922Z,6.72
2017-10-14T09:49:39.423Z,4.57
2017-10-14T09:52:06.934Z,6.45
2017-10-14T09:54:34.443Z,5.30
2017-10-14T09:57:02.192Z,7.25
2017-10-14T09:59:29.714Z,8.13
2017-10-14T10:01:57.220Z,6.32
2017-10-14T10:04:24.737Z,4.62
2017-10-14T10:06:52.247Z,4.82
2017-10-14T10:09:20.557Z,4.68
2017-10-14T10:11:48.074Z,10.68
2017-10-14T10:14:15.591Z,10.18
2017-10-14T10:16:43.862Z,5.05
2017-10-14T10:19:11.387Z,4.45
2017-10-14T10:21:39.666Z,5.03
2017-10-14T10:24:07.955Z,3.90
2017-10-14T10:26:35.514Z,6.90
2017-10-14T10:29:03.039Z,4.18
2017-10-14T10:31:31.025Z,8.13
2017-10-14T10:33:58.556Z,6.18
2017-10-14T10:36:26.084Z,6.32
2017-10-14T10:38:53.619Z,6.75
2017-10-14T10:41:21.132Z,5.18
2017-10-14T10:43:48.683Z,6.78
2017-10-14T10:46:16.192Z,7.43
2017-10-14T10:48:43.741Z,4.80
2017-10-14T10:51:12.009Z,4.45
2017-10-14T10:53:43.679Z,4.47
2017-10-14T10:56:11.947Z,6.05
2017-10-14T10:58:39.479Z,5.68
2017-10-14T11:01:06.989Z,5.97
2017-10-14T11:03:35.458Z,10.52
2017-10-14T11:06:03.748Z,7.40
2017-10-14T11:08:32.028Z,6.18
2017-10-14T11:10:59.566Z,5.37
2017-10-14T11:13:27.851Z,6.95
2017-10-14T11:15:56.161Z,5.62
2017-10-14T11:18:23.678Z,4.53
2017-10-14T11:20:51.999Z,9.70
2017-10-14T11:23:19.520Z,7.62
2017-10-14T11:25:47.828Z,5.30
2017-10-14T11:28:15.363Z,5.22
2017-10-14T11:30:43.667Z,7.95
2017-10-14T11:33:11.174Z,9.35
2017-10-14T11:35:38.694Z,5.87
2017-10-14T11:38:06.203Z,11.25
2017-10-14T11:40:34.495Z,6.20
2017-10-14T11:43:02.768Z,8.25
2017-10-14T11:45:30.303Z,6.32
2017-10-14T11:47:57.814Z,6.80
2017-10-14T11:50:25.343Z,11.98
2017-10-14T11:52:53.620Z,7.97
2017-10-14T11:55:21.911Z,6.37
2017-10-14T11:57:50.182Z,10.45
2017-10-14T12:00:18.491Z,7.00
2017-10-14T12:02:45.994Z,6.28
2017-10-14T12:05:13.518Z,7.28
2017-10-14T12:07:41.843Z,8.00
2017-10-14T12:10:09.354Z,8.57
2017-10-14T12:12:36.888Z,11.15
2017-10-14T12:15:05.339Z,9.27
2017-10-14T12:17:32.867Z,10.52
2017-10-14T12:20:00.371Z,6.72
2017-10-14T12:22:28.663Z,7.62
2017-10-14T12:24:56.167Z,8.73
2017-10-14T12:27:23.691Z,5.30
2017-10-14T12:29:51.188Z,7.03
2017-10-14T12:32:18.715Z,10.30
2017-10-14T12:34:46.231Z,8.30
2017-10-14T12:37:13.747Z,6.20
2017-10-14T12:39:41.242Z,5.78
2017-10-14T12:42:08.799Z,7.28
2017-10-14T12:44:36.316Z,4.45
2017-10-14T12:47:03.839Z,6.97
2017-10-14T12:49:32.128Z,6.28
2017-10-14T12:51:59.658Z,7.97
2017-10-14T12:54:27.172Z,7.18
2017-10-14T12:56:54.702Z,5.62
2017-10-14T12:59:22.971Z,7.78
2017-10-14T13:01:51.259Z,5.25
2017-10-14T13:04:18.783Z,4.82
2017-10-14T13:06:46.326Z,4.03
2017-10-14T13:09:13.827Z,3.55
2017-10-14T13:11:42.111Z,2.92
2017-10-14T13:14:10.397Z,3.45
2017-10-14T13:16:37.923Z,3.20
2017-10-14T13:19:05.448Z,3.67
2017-10-14T13:21:32.972Z,3.20
2017-10-14T13:24:00.503Z,3.30
2017-10-14T13:26:28.023Z,4.80
2017-10-14T13:28:55.547Z,2.83
2017-10-14T13:31:23.836Z,4.22
2017-10-14T13:33:51.372Z,2.87
2017-10-14T13:36:19.659Z,3.55
2017-10-14T13:38:47.195Z,3.65
2017-10-14T13:41:14.707Z,3.92
2017-10-14T13:43:42.233Z,5.60
2017-10-14T13:46:10.524Z,4.68
2017-10-14T13:48:38.045Z,3.80
2017-10-14T13:51:05.569Z,3.72
2017-10-14T13:53:33.120Z,4.60
2017-10-14T13:56:00.631Z,4.05
2017-10-14T13:58:28.923Z,5.60
2017-10-14T14:00:57.191Z,6.35
2017-10-14T14:03:25.484Z,3.55
2017-10-14T14:05:53.003Z,5.95
2017-10-14T14:08:20.533Z,7.57
2017-10-14T14:10:48.045Z,5.90
2017-10-14T14:13:15.581Z,2.60
2017-10-14T14:15:43.090Z,7.82
2017-10-14T14:18:10.610Z,6.28
2017-10-14T14:20:38.133Z,4.53
2017-10-14T14:23:05.655Z,4.80
2017-10-14T14:25:33.956Z,5.60
2017-10-14T14:28:01.467Z,7.15
2017-10-14T14:30:29.769Z,3.70
2017-10-14T14:32:57.288Z,2.47
2017-10-14T14:35:24.822Z,5.03
2017-10-14T14:37:53.097Z,3.92
2017-10-14T14:40:20.625Z,8.15
2017-10-14T14:42:48.136Z,3.10
2017-10-14T14:45:15.656Z,4.65
2017-10-14T14:47:43.173Z,4.55
2017-10-14T14:50:10.716Z,4.10
2017-10-14T14:52:38.220Z,4.35
2017-10-14T14:55:06.502Z,4.90
2017-10-14T14:57:34.030Z,4.25
2017-10-14T15:00:01.547Z,3.70
2017-10-14T15:02:29.052Z,3.40
2017-10-14T15:04:56.588Z,6.72
2017-10-14T15:07:24.082Z,2.78
2017-10-14T15:09:52.366Z,5.32
2017-10-14T15:12:20.631Z,3.60
2017-10-14T15:14:48.913Z,7.20
2017-10-14T15:17:16.439Z,4.10
2017-10-14T15:19:43.998Z,3.30
2017-10-14T15:22:11.499Z,3.03
2017-10-14T15:24:39.763Z,3.70
2017-10-14T15:27:08.052Z,4.60
2017-10-14T15:29:36.403Z,11.10
2017-10-14T15:32:03.921Z,6.53
2017-10-14T15:34:31.419Z,3.97
2017-10-14T15:36:58.967Z,4.47
2017-10-14T15:39:26.468Z,3.22
2017-10-14T15:41:53.999Z,4.78
2017-10-14T15:44:21.500Z,4.47
2017-10-14T15:46:49.023Z,3.08
2017-10-14T15:49:16.532Z,6.07
2017-10-14T15:51:44.068Z,4.43
2017-10-14T15:54:12.339Z,4.47
2017-10-14T15:56:40.627Z,4.78
2017-10-14T15:59:08.130Z,6.20
2017-10-14T16:01:35.654Z,6.15
2017-10-14T16:04:03.185Z,5.32
2017-10-14T16:06:31.475Z,3.53
2017-10-14T16:08:58.991Z,4.85
2017-10-14T16:11:26.504Z,4.00
2017-10-14T16:13:54.015Z,7.00
2017-10-14T16:16:22.003Z,4.47
2017-10-14T16:18:50.278Z,3.58
2017-10-14T16:21:17.776Z,5.70
2017-10-14T16:23:45.309Z,7.78
2017-10-14T16:26:13.572Z,10.52
2017-10-14T16:28:41.083Z,7.40
2017-10-14T16:31:08.578Z,5.55
2017-10-14T16:33:36.090Z,7.07
2017-10-14T16:36:03.587Z,8.50
2017-10-14T16:38:31.102Z,6.00
2017-10-14T16:40:58.610Z,4.10
2017-10-14T16:43:26.138Z,8.65
2017-10-14T16:45:53.634Z,5.03
2017-10-14T16:48:21.143Z,5.25
2017-10-14T16:50:48.647Z,5.53
2017-10-14T16:53:16.166Z,10.93
2017-10-14T16:55:43.669Z,4.28
2017-10-14T16:58:11.187Z,5.25
2017-10-14T17:00:38.695Z,6.32
2017-10-14T17:03:06.211Z,12.05
2017-10-14T17:05:33.705Z,6.72
2017-10-14T17:08:01.224Z,9.63
2017-10-14T17:10:29.492Z,21.30
2017-10-14T17:12:57.023Z,8.13
2017-10-14T17:15:25.290Z,7.40
2017-10-14T17:17:53.570Z,9.60
2017-10-14T17:20:21.847Z,10.48
2017-10-14T17:22:50.151Z,8.10
2017-10-14T17:25:17.650Z,8.60
2017-10-14T17:27:45.147Z,9.02
2017-10-14T17:30:13.434Z,10.73
2017-10-14T17:32:41.708Z,10.60
2017-10-14T17:35:09.228Z,10.68
2017-10-14T17:37:36.734Z,11.93
2017-10-14T17:40:04.251Z,22.95
2017-10-14T17:42:31.767Z,12.68
2017-10-14T17:44:59.296Z,12.07
2017-10-14T17:47:27.577Z,20.15
2017-10-14T17:49:55.110Z,11.38
2017-10-14T17:52:22.627Z,12.52
2017-10-14T17:54:50.898Z,9.52
2017-10-14T17:57:18.423Z,8.40
2017-10-14T17:59:46.703Z,12.98
2017-10-14T18:02:14.987Z,7.43
2017-10-14T18:04:43.254Z,10.30
2017-10-14T18:07:11.533Z,10.13
2017-10-14T18:09:39.799Z,13.25
2017-10-14T18:12:07.334Z,14.93
2017-10-14T18:14:34.835Z,12.77
2017-10-14T18:17:03.099Z,12.35
2017-10-14T18:19:31.384Z,15.10
2017-10-14T18:21:59.651Z,19.55
2017-10-14T18:24:27.937Z,15.13
2017-10-14T18:26:56.216Z,14.75
2017-10-14T18:29:24.545Z,21.15
2017-10-14T18:31:52.047Z,17.30
2017-10-14T18:34:20.362Z,15.90
2017-10-14T18:36:47.869Z,18.87
2017-10-14T18:39:15.376Z,19.80
2017-10-14T18:41:42.919Z,18.23
2017-10-14T18:44:10.428Z,20.05
2017-10-14T18:46:37.951Z,14.25
2017-10-14T18:49:05.450Z,16.25
2017-10-14T18:51:32.976Z,15.02
2017-10-14T18:54:00.487Z,14.90
2017-10-14T18:56:28.023Z,19.00
2017-10-14T18:58:55.527Z,16.50
2017-10-14T19:01:23.027Z,17.92
2017-10-14T19:03:50.551Z,17.92
2017-10-14T19:06:18.063Z,15.20
2017-10-14T19:08:45.583Z,12.60
2017-10-14T19:11:13.084Z,17.27
2017-10-14T19:13:40.619Z,13.38
2017-10-14T19:16:08.127Z,14.87
2017-10-14T19:18:35.630Z,10.73
2017-10-14T19:21:03.146Z,13.07
2017-10-14T19:23:31.427Z,14.05
2017-10-14T19:25:59.715Z,17.27
2017-10-14T19:28:27.231Z,18.05
2017-10-14T19:30:54.762Z,16.65
2017-10-14T19:33:22.266Z,15.38
2017-10-14T19:35:49.786Z,16.70
2017-10-14T19:38:17.296Z,15.90
2017-10-14T19:40:45.702Z,15.85
2017-10-14T19:43:13.223Z,14.60
2017-10-14T19:45:40.727Z,16.58
2017-10-14T19:48:08.255Z,16.70
2017-10-14T19:50:36.526Z,18.48
2017-10-14T19:53:04.811Z,18.48
2017-10-14T19:55:33.082Z,17.55
2017-10-14T20:00:42.192Z,12.68
2017-10-14T20:03:09.735Z,15.95
2017-10-14T20:05:37.244Z,13.70
2017-10-14T20:08:04.767Z,12.93
2017-10-14T20:10:32.296Z,15.05
2017-10-14T20:12:59.815Z,12.55
2017-10-14T20:15:27.342Z,15.57
2017-10-14T20:17:54.870Z,12.73
2017-10-14T20:20:22.416Z,11.82
2017-10-14T20:22:49.918Z,14.50
2017-10-14T20:25:17.435Z,12.65
2017-10-14T20:27:45.735Z,16.48
2017-10-14T20:30:13.251Z,13.30
2017-10-14T20:32:41.558Z,13.45
2017-10-14T20:35:09.076Z,10.43
2017-10-14T20:37:36.594Z,10.98
2017-10-14T20:40:04.111Z,13.73
2017-10-14T20:42:32.411Z,14.90
2017-10-14T20:44:59.923Z,9.40
2017-10-14T20:47:27.434Z,14.40
2017-10-14T20:49:54.977Z,13.90
2017-10-14T20:52:23.247Z,14.13
2017-10-14T20:54:51.550Z,11.55
2017-10-14T20:57:19.055Z,11.65
2017-10-14T20:59:46.576Z,15.95
2017-10-14T21:02:14.903Z,11.63
2017-10-14T21:04:42.440Z,12.70
2017-10-14T21:07:09.947Z,15.77
2017-10-14T21:09:38.218Z,9.93
2017-10-14T21:12:06.506Z,11.55
2017-10-14T21:14:34.040Z,9.40
2017-10-14T21:17:01.555Z,8.48
2017-10-14T21:19:29.066Z,8.85
2017-10-14T21:21:56.595Z,10.52
2017-10-14T21:24:24.103Z,11.68
2017-10-14T21:26:52.794Z,10.73
2017-10-14T21:29:20.306Z,12.45
2017-10-14T21:31:47.811Z,8.65
2017-10-14T21:34:15.351Z,10.98
2017-10-14T21:36:43.614Z,11.10
2017-10-14T21:39:11.145Z,8.32
2017-10-14T21:41:38.646Z,7.95
2017-10-14T21:44:06.931Z,8.23
2017-10-14T21:46:34.443Z,10.63
2017-10-14T21:49:01.978Z,10.38
2017-10-14T21:51:29.499Z,12.75
2017-10-14T21:53:57.767Z,9.60
2017-10-14T21:56:25.306Z,12.75
2017-10-14T21:58:52.810Z,17.00
2017-10-14T22:01:20.351Z,10.40
2017-10-14T22:03:48.622Z,16.73
2017-10-14T22:06:16.192Z,11.43
2017-10-14T22:08:44.475Z,10.68
2017-10-14T22:11:11.991Z,13.13
2017-10-14T22:13:39.523Z,13.13
2017-10-14T22:16:07.031Z,9.40
2017-10-14T22:18:34.562Z,11.40
2017-10-14T22:21:02.087Z,10.25
2017-10-14T22:23:29.611Z,11.70
2017-10-14T22:25:57.129Z,14.05
2017-10-14T22:28:24.689Z,11.80
2017-10-14T22:30:52.186Z,14.32
2017-10-14T22:33:19.695Z,9.25
2017-10-14T22:35:47.995Z,12.68
2017-10-14T22:38:15.502Z,10.45
2017-10-14T22:40:43.027Z,13.02
2017-10-14T22:43:10.534Z,11.15
2017-10-14T22:45:38.058Z,14.43
2017-10-14T22:48:05.585Z,12.55
2017-10-14T22:50:33.102Z,12.32
2017-10-14T22:53:00.619Z,12.40
2017-10-14T22:55:28.177Z,12.90
2017-10-14T22:57:55.674Z,11.65
2017-10-14T23:00:23.960Z,12.27
2017-10-14T23:02:52.230Z,11.32
2017-10-14T23:05:20.530Z,8.65
2017-10-14T23:07:48.046Z,10.75
2017-10-14T23:10:15.707Z,13.62
2017-10-14T23:12:43.220Z,9.85
2017-10-14T23:15:10.741Z,7.87
2017-10-14T23:17:39.006Z,8.55
2017-10-14T23:20:07.319Z,9.50
2017-10-14T23:22:34.821Z,14.02
2017-10-14T23:25:02.398Z,9.65
2017-10-14T23:27:29.920Z,7.30
2017-10-14T23:29:57.434Z,10.95
2017-10-14T23:32:25.706Z,8.10
2017-10-14T23:34:53.983Z,8.02
2017-10-14T23:37:22.292Z,8.55
2017-10-14T23:39:49.805Z,8.55
2017-10-14T23:42:17.342Z,8.65
2017-10-14T23:44:44.842Z,9.68
2017-10-14T23:47:13.122Z,8.05
2017-10-14T23:49:41.395Z,8.88
2017-10-14T23:52:09.710Z,10.30
2017-10-14T23:54:37.206Z,9.70
2017-10-14T23:57:04.727Z,9.43
2017-10-14T23:59:32.230Z,10.27
